AirNav   Textron
 
 711 users online  

KSGS South St Paul Municipal Airport-Richard E Fleming Field
South St Paul, Minnesota, USA

GOING TO SOUTH ST PAUL?


FAA INFORMATION EFFECTIVE 09 NOVEMBER 2017

Location

FAA Identifier: SGS
Lat/Long: 44-51-25.7000N / 093-01-58.3000W
44-51.428333N / 093-01.971667W
44.8571389 / -93.0328611
(estimated)
Elevation: 821 ft. / 250.2 m (surveyed)
Variation: 00E (2015)
From city: 2 miles S of SOUTH ST PAUL, MN
Time zone: UTC -6 (UTC -5 during Daylight Saving Time)
Zip code: 55076

Airport Operations

Airport use: Open to the public
Activation date: 10/1941
Control tower: no
ARTCC: MINNEAPOLIS CENTER
FSS: PRINCETON FLIGHT SERVICE STATION
NOTAMs facility: SGS (NOTAM-D service available)
Attendance: TUE-FRI 0800-1900, ALL SAT 0800-1830
Pattern altitude: 1721 ft. MSL
Wind indicator: lighted
Segmented circle: yes
Lights: MIRL RY 16/34 PRESET LOW INTST; TO INCR INTST & ACTVT MIRL RY 16/34 AND PAPI RY 16 & RY 34 - CTAF.
Beacon: white-green (lighted land airport)
Operates sunset to sunrise.

Airport Communications

CTAF/UNICOM: 122.7
WX AWOS-3: 119.425 (651-457-8120)
MINNEAPOLIS APPROACH: 121.2
MINNEAPOLIS DEPARTURE: 121.2
CLEARANCE DELIVERY: 118.2
WX ASOS at STP (5 nm N): PHONE 651-298-1410
WX ASOS at MSP (8 nm W): PHONE 612-713-4174
WX AWOS-3 at 21D (11 nm NE): 120.075 (651-779-5949)
WX AWOS-3 at LVN (16 nm SW): 118.0 (952-469-5850)
WX ASOS at FCM (18 nm W): PHONE 952-941-4156
WX ASOS at MIC (18 nm NW): PHONE 763-531-2343
WX AWOS-3 at ANE (19 nm NW): PHONE 763-780-9025
  • CLEARANCE DELIVERY PRVDD BY MINNEAPOLIS APCH CTL ON FREQ 118.2.

Nearby radio navigation aids

VOR radial/distance  VOR name  Freq  Var
MSPr103/9.0MINNEAPOLIS VOR/DME115.3002E
FGTr019/15.0FARMINGTON VORTAC115.7006E
FCMr083/17.5FLYING CLOUD VOR/DME117.7001E
GEPr134/22.5GOPHER VORTAC117.3006E

 
NDB name  Hdg/Dist  Freq  Var  ID
HOPEY253/4.040003EPPI .--. .--. ..

Airport Services

Fuel available: 100LL 80 JET-A
SELF SERVE FUEL AVBL WITH CREDIT CARD 24 HRS.
Parking: hangars and tiedowns
Airframe service: MAJOR
Powerplant service: MINOR
Bottled oxygen: NONE
Bulk oxygen: NONE

Runway Information

Runway 16/34

Dimensions: 4002 x 100 ft. / 1220 x 30 m
Surface: asphalt, in good condition
Weight bearing capacity: 
Single wheel: 30.0
Double wheel: 57.0
Runway edge lights: medium intensity
RUNWAY 16  RUNWAY 34
Latitude: 44-51.742075N44-51.114242N
Longitude: 093-02.110807W093-01.831560W
Elevation: 820.8 ft.818.8 ft.
Gradient: 0.1%0.1%
Traffic pattern: leftleft
Runway heading: 162342
Markings: nonprecision, in good conditionnonprecision, in good condition
Visual slope indicator: 4-light PAPI on left (3.00 degrees glide path)4-light PAPI on left (3.00 degrees glide path)
Touchdown point: yes, no lightsyes, no lights
Instrument approach: LOC/DME
Obstructions: none74 ft. trees, 2082 ft. from runway, 141 ft. right of centerline, 25:1 slope to clear

Airport Ownership and Management from official FAA records

Ownership: Publicly-owned
Owner: CITY OF SOUTH ST. PAUL
125 3RD AVE N
SOUTH ST PAUL, MN 55075
Phone 651-450-3200
Manager: PHILIP TIEDEMAN
1725 HENRY AVE
SOUTH ST PAUL, MN 55075
Phone (651) 554-3350

Airport Operational Statistics

Aircraft based on the field: 401
Single engine airplanes: 375
Multi engine airplanes: 20
Helicopters: 6
    
Aircraft operations: avg 140/day *
82% local general aviation
18% transient general aviation
* for 12-month period ending 31 May 2016

Additional Remarks

EXTDD TFC PATTERN OPNS 'N' OF ARPT MAY CONFLICT WITH ST PAUL DOWNTOWN ARPT CTLD ASP; CTC STP ATCT 119.1.
FREQUENT HEL OPNS OVR MISSISSIPPI RIVER E OF ARPT BLO 2200 FT MSL.
WATERFOWL ON & INVOF ARPT.

Instrument Procedures

NOTE: All procedures below are presented as PDF files. If you need a reader for these files, you should download the free Adobe Reader.

NOT FOR NAVIGATION. Please procure official charts for flight.
FAA instrument procedures published for use between 9 November 2017 at 0901Z and 7 December 2017 at 0900Z.

 
STARs - Standard Terminal Arrivals
AGUDE FIVE **CHANGED**   download (249KB)
 
IAPs - Instrument Approach Procedures
RNAV (GPS) RWY 34   download (232KB)
LOC RWY 34   download (259KB)
NDB-B   download (197KB)
NOTE: Special Alternate Minimums apply   download
NOTE: Special Take-Off Minimums/Departure Procedures apply   download

Other nearby airports with instrument procedures:

KSTP - St. Paul Downtown Airport / Holman Field (5 nm N)
KMSP - Minneapolis-St Paul International/Wold-Chamberlain Airport (8 nm W)
21D - Lake Elmo Airport (11 nm NE)
KLVN - Airlake Airport (16 nm SW)
KFCM - Flying Cloud Airport (18 nm W)
KMIC - Crystal Airport (18 nm NW)
KANE - Anoka County-Blaine Airport (Janes Field) (19 nm NW)
 
Loc | Ops | Rwys | IFR | FBO | Links
Com | Nav | Svcs | Stats | Notes


 
Area around KSGS (South St Paul Municipal Airport-Richard E Fleming Field)
 
Road maps at: MapQuest Bing Google
 
Aerial photo
WARNING: Photo may not be current or correct
Aerial photo of KSGS (South St Paul Municipal Airport-Richard E Fleming Field)
Photo taken 24-Nov-2012

Do you have a better or more recent aerial photo of South St Paul Municipal Airport-Richard E Fleming Field that you would like to share? If so, please send us your photo.

 
Sectional chart

 
Airport distance calculator
Flying to South St Paul Municipal Airport-Richard E Fleming Field? Find the distance to fly.

From to KSGS

Sunrise and sunset
Times for 21-Nov-2017
 Local
(UTC-6)
 Zulu
(UTC)
Morning civil twilight06:4612:46
Sunrise07:1813:18
Sunset16:3822:38
Evening civil twilight17:1023:10

Current date and time
Zulu (UTC)  22-Nov-2017 04:27:13
Local (UTC-6)  21-Nov-2017 22:27:13
 
METAR
KSTP 
5nm N 
220353Z AUTO 31011KT 10SM CLR M07/M12 A3032 RMK AO2 SLP277 T10671122
KSGS 
5nm W 
220413Z AUTO 31007KT 10SM CLR M06/M12 A3031 RMK AO2 T10641120
KMSP 
9nm W 
220353Z 34011KT 10SM SCT300 M07/M12 A3030 RMK AO2 SLP277 T10671117
K21D 
11nm NE 
220412Z AUTO 31006KT 10SM CLR M06/M11 A3031 RMK AO2
KLVN 
16nm SW 
220410Z AUTO 33008G15KT 10SM CLR M08/M12 A3030 RMK AO2
KANE 
18nm NW 
220414Z AUTO 30008KT 10SM CLR M07/M11 A3029 RMK AO2
KMIC 
18nm NW 
220353Z AUTO 31008KT 10SM CLR M07/M13 A3030 RMK AO2 SLP276 T10721133 TSNO
KFCM 
19nm W 
220353Z AUTO 34013KT 10SM CLR M06/M12 A3030 RMK AO2 SLP275 T10611117
TAF
KMSP 
9nm W 
212049Z 2121/2224 32014G20KT P6SM SKC FM220100 31011KT P6SM SKC FM220500 30005KT P6SM FEW250 FM221400 21004KT P6SM BKN250 FM222000 19007KT P6SM BKN080 OVC150
NOTAMs
Click for the latest NOTAMs
NOTAMs are issued by the DoD/FAA and will open in a separate window not controlled by AirNav.

 

 
 

FBO, Fuel Providers, and Aircraft Ground Support

  
 Business Name 
 
 Contact 
 
 Services / Description 
 
Fuel Prices
 
Comments
  
 City of South St. Paul (FBO)
UNICOM 122.70
651-554-3350
[web site]
[email]
Dedicated to Maj. Richard F. Fleming, the South St. Paul Airport is near the Minneapolis-St. Paul Twin City metropolitan business center, which is one of the largest commercial centers between the East and West coasts. We are the ideal refueling stop for GA aircraft.
 
Avis   Budget Rent A Car   Enterprise Rent-A-Car   Hertz   Cessna Service Center   Wireless Internet Access (WiFi)   National Business Aviation Association  
 
More info about City of South St. Paul (FBO)
Phillips 66
100LL Jet A Mogas
SS $4.39 $3.19 $3.29 
 Updated 16-Nov-2017
 
   3 read write
SS=Self service
Update Fuel Prices
 

Aviation Businesses, Services, and Facilities

  
 Business Name 
 
 Contact 
 
 Services / Description 
 
Distance
 
Comments
  
Air Trek North 952-594-1184
[web site]
[email]
Flight training, Aircraft maintenance

More info about Air Trek North
on airport  
   write
 Wipaire, Inc.
651-451-1205
[web site]
[email]

Like us on facebook See us on instagram
Aircraft maintenance, Avionics sales and service, Aircraft modifications, Aircraft painting, Aircraft interiors, Aircraft parts, Aircraft sales / leasing / brokerage
 
FAA-Approved Repair Station   Cessna Service Center  
 
More info about Wipaire, Inc.
on airport  
   write
 

Would you like to see your business listed on this page?

 If your business provides an interesting product or service to pilots, flight crews, aircraft, or users of the South St Paul Municipal Airport-Richard E Fleming Field, you should consider listing it here.  To start the listing process, click on the button below
 
Add a business
 

Other Pages about South St Paul Municipal Airport-Richard E Fleming Field

www.flemingfield.com
PDF page(s) from the Minnesota Airport Directory
 
Update a link
 
Copyright © AirNav, LLC. All rights reserved. Privacy Policy  Contact